Results by/Résultats par Info:[email protected] Phone: (613)260-0994


                                    K-TOWN TRIATHLON

                                Sunday August 1st, 2004

                         Confederation Park, Kingston, Ontario

                        Overall Results - Short Course Triathlon

  -----FINAL----- ----------------------- ------------ -------------------- ----            750m                        30 km                   7.2 km
                                                       Category                     ------SWIM + T1-------    ----------BIKE--------    -------RUN + T2-------
    Pos     Time  Name                    City         Plc/Total Category     #      Cat  Ovr  Time  /100m     Cat Ovr Time  km/hr      Cat  Ovr  Time     km
  ------  ------- ----------------------- ------------ -------------------- ----    ----------------------    ----------------------    ----------------------
    1     1:33:37 Jason Dunford           Regina         1/27  M30 - 34      283    1      8   13:44  1:50    1      1   48:58  36.8     2      4   30:56  4:18 
    2     1:36:06 Gerry Lashley           Toronto        1/27  M35 - 39      444    3     22   15:12  2:02    2      8   51:17  35.1     1      1   29:37  4:07 
    3     1:36:30 Robert Wilson           Kingston       1/11  M25 - 29      235    1      9   13:46  1:51    1      9   51:24  35.0     1      9   31:20  4:22 
    4     1:37:14 Michael Cino            Ottawa         2/27  M30 - 34      242    2     21   15:10  2:02    2     13   51:42  34.8     1      2   30:23  4:14 
    5     1:37:14 Larbi Benhabib          Kingston       1/11  M20 - 24      349    2     24   15:20  2:03    1      6   51:13  35.1     1      3   30:42  4:16 
    6     1:37:44 Richard Cadman          Battersea      1/17  M40 - 44      220    2     23   15:16  2:03    1      2   49:11  36.6     4     36   33:18  4:38 
    7     1:37:51 Kevin Hall              Kingston       1/26  M45 - 49      263    1     16   14:41  1:58    1      4   49:57  36.0     4     33   33:15  4:37 
    8     1:38:17 Bill McIlroy            Perth Road     2/27  M35 - 39      431    8     70   17:22  2:19    1      3   49:36  36.3     2      8   31:20  4:22 
    9     1:38:32 Lianne Archambault      Kingston       1/20  W30 - 34      405    2      5   13:30  1:48    1      5   50:55  35.4     2     42   34:08  4:45 
   10     1:38:51 Murray Tough            Kingston       2/17  M40 - 44      302    4     44   16:22  2:11    2     10   51:27  35.0     1      5   31:02  4:19 
   11     1:39:35 Gary Tranmer            Kingston       1/13  M50 - 54      443    3     11   13:53  1:51    1     17   52:41  34.2     2     31   33:02  4:36 
   12     1:40:19 Brad Doyle              Bowmanville    3/27  M35 - 39      312    4     25   15:32  2:05    4     22   53:02  34.0     3     13   31:46  4:25 
   13     1:40:36 Mark Davis              Peterborough   3/17  M40 - 44      330    3     26   15:32  2:05    3     23   53:07  33.9     3     17   31:57  4:27 
   14     1:40:51 Jim Murray              Gananoque      2/26  M45 - 49      306    5     52   16:37  2:13    3     15   52:24  34.4     2     15   31:51  4:26 
   15     1:41:09 Alina Toma              Kingston       1/23  W25 - 29      331    2      6   13:38  1:50    2     51   55:13  32.6     2     22   32:18  4:30 
   16     1:41:37 Lianne Crawford         Regina         2/20  W30 - 34      282    1      1   12:16  1:39    3     24   53:16  33.8     4     67   36:05  5:01 
   17     1:41:45 Carlos Gonzalez         Ajax           3/26  M45 - 49      391    8     72   17:25  2:20    4     18   52:44  34.1     1     11   31:36  4:24 
   18     1:41:47 David Peterson          Napanee        3/27  M30 - 34      421    3     27   15:34  2:05    4     32   54:05  33.3     5     20   32:09  4:28 
   19     1:41:50 James Carpenter         Orleans        2/13  M50 - 54      461    6     63   17:01  2:17    2     20   52:57  34.0     1     16   31:53  4:26 
   20     1:42:49 Seth Brewer             Canton         2/11  M20 - 24      409    4     45   16:23  2:11    3     30   53:55  33.4     3     25   32:32  4:32 
   21     1:43:10 Terry OBrien            Kingston       3/13  M50 - 54      346    2     10   13:50  1:51    3     21   53:00  34.0     5     69   36:21  5:03 
   22     1:43:30 Sophie Matte            Chelsea        3/20  W30 - 34      372    4     14   14:07  1:53    2     14   52:11  34.5     5     77   37:13  5:11 
   23     1:43:31 William Cooper          Kingston       4/17  M40 - 44      308    1     17   14:47  1:59    4     33   54:10  33.2     6     49   34:35  4:49 
   24     1:43:42 Feleisha Reiter         Sault Ste. M   2/23  W25 - 29      326    4     28   15:44  2:06    4     69   56:09  32.1     1     14   31:49  4:26 
   25     1:43:50 Trevor Tovell           Windsor        1/3   Junior Men    430    2     49   16:31  2:13    2     55   55:21  32.5     1     18   31:58  4:27 
   26     1:43:57 Michelle Cole           Kingston       1/18  W35 - 39      231    1      3   13:15  1:46    3     65   55:59  32.2     2     50   34:45  4:50 
   27     1:44:02 Eric Lindenberg         Belleville     4/26  M45 - 49      463    14   103   18:51  2:31    2      7   51:15  35.1     6     40   33:57  4:43 
   28     1:44:13 Sheldon COOK            Inverary       2/18  W35 - 39      272    4     50   16:33  2:13    2     63   55:58  32.2     1     12   31:43  4:25 
   29     1:44:28 Darryl Smith            Kingston       4/27  M30 - 34      379    5     60   16:48  2:15    7     56   55:28  32.5     6     21   32:12  4:29 
   30     1:44:38 Connor Twohig           Kingston       3/11  M20 - 24      392    6     65   17:11  2:18    5     48   55:02  32.7     2     24   32:25  4:31 
   31     1:44:40 Erik Couture            Kingston       4/11  M20 - 24      365    3     37   16:07  2:09    6     58   55:49  32.3     4     28   32:45  4:33 
   32     1:44:41 John March              Ottawa         4/13  M50 - 54      415    1      2   12:54  1:44    6     71   56:14  32.0     4     62   35:33  4:57 
   33     1:44:43 Andrew Thew             Belleville     4/27  M35 - 39      390    9     86   18:02  2:25    3     12   51:29  35.0     9     59   35:12  4:54 
   34     1:44:58 Rick Cathrae            Belleville     5/13  M50 - 54      371    7     87   18:02  2:25    4     26   53:42  33.5     3     34   33:15  4:38 
   35     1:45:09 David Barbic            Kingston       5/11  M20 - 24      353    1     15   14:31  1:57    4     42   54:43  32.9     6     64   35:55  5:00 
   36     1:45:34 Mark Frederick          Kingston       5/26  M45 - 49      335    10    78   17:40  2:22    5     29   53:55  33.4     7     41   34:00  4:44 
   37     1:45:50 Brian Lansdowne         Belleville     1/3   M55 - 59      469    2    178   21:41  2:54    1     11   51:27  35.0     1     27   32:43  4:33 
   38     1:46:21 Brian Farnell           RR 1 Inverar   6/26  M45 - 49      246    3     47   16:28  2:12    13    81   57:05  31.5     3     29   32:49  4:34 
   39     1:46:22 Stephanie Jull          Stouffville    1/19  W20 - 24      468    9    110   19:10  2:34    1     19   52:52  34.1     1     45   34:21  4:47 
   40     1:46:32 Laurie Ross             Battersea      1/17  W40 - 44      219    1     12   13:53  1:52    1     36   54:19  33.1     3     92   38:21  5:20 
   41     1:46:40 Dan McIver              Kingston       5/27  M35 - 39      424    10   104   18:55  2:32    8     50   55:09  32.6     5     26   32:36  4:32 
   42     1:47:04 Normand Marcotte        Cornwall       7/26  M45 - 49      340    4     51   16:34  2:13    6     31   53:56  33.4     9     71   36:35  5:05 
   43     1:47:09 Natalie McCrea          Kanata         3/23  W25 - 29      416    1      4   13:23  1:47    5     96   58:10  31.0     5     63   35:37  4:57 
   44     1:47:14 Sarah Quintin-Beland    Sackville      3/18  W35 - 39      363    3     35   16:02  2:09    4     68   56:06  32.1     3     56   35:07  4:53 
   45     1:47:17 David Bruce             Kingston       6/27  M35 - 39      203    6     43   16:21  2:11    7     46   55:01  32.7     10    65   35:56  5:00 
   46     1:47:37 Tim Gillespie           Kingston       2/11  M25 - 29      438    2     30   15:45  2:06    3     76   56:43  31.7     3     57   35:10  4:53 
   47     1:47:58 Paul Phillips           Chelsea        7/27  M35 - 39      370    2     19   14:50  1:59    5     28   53:45  33.5     15   109   39:23  5:29 
   48     1:48:01 Geoff Shewfelt          Clayton        5/27  M30 - 34      236    6     64   17:07  2:17    10    77   56:46  31.7     8     43   34:08  4:45 
   49     1:48:02 Brendan Miles           Kingston       6/11  M20 - 24      320    5     54   16:40  2:14    8     95   57:53  31.1     5     38   33:31  4:40 
   50     1:48:03 Jairo Munoz             Kingston       8/27  M35 - 39      284    12   108   19:04  2:33    6     37   54:28  33.1     7     48   34:32  4:48 
   51     1:48:30 Dave Morton             Nepean         8/26  M45 - 49      441    17   144   20:09  2:42    9     49   55:07  32.7     5     35   33:16  4:38 
   52     1:48:39 Mitch Fallis            Yarker         5/17  M40 - 44      247    5     48   16:30  2:12    10    80   56:59  31.6     8     58   35:11  4:54 
   53     1:48:45 Margot Hall             Ottawa         4/23  W25 - 29      240    5     29   15:45  2:06    6     98   58:12  30.9     3     52   34:49  4:51 
   54     1:48:51 Mike Burleigh           Inverary       9/27  M35 - 39      375    16   156   20:48  2:47    10    67   56:03  32.1     4     19   32:01  4:27 
   55     1:48:52 Steve Ross              Ottawa         6/17  M40 - 44      458    9    151   20:34  2:45    6     38   54:30  33.0     5     39   33:49  4:42 
   56     1:48:57 Simon Baron             Kingston       6/27  M30 - 34      403    8     82   17:49  2:23    8     59   55:50  32.2     10    61   35:19  4:55 
   57     1:49:03 Stacey Berdan           Tweed          4/18  W35 - 39      205    6     62   16:52  2:15    1     45   54:52  32.8     5     78   37:20  5:12 
   58     1:49:33 Ken Anderson            Kingston      10/27  M35 - 39      218    1     18   14:49  1:59    15    94   57:49  31.1     11    74   36:56  5:08 
   59     1:49:45 Bart Pouteau            Edmonton       3/11  M25 - 29      297    3     85   17:56  2:24    7    117   59:26  30.3     2     23   32:24  4:30 
   60     1:49:49 Andrew Mackie           Montreal      11/27  M35 - 39      319    11   107   19:02  2:33    9     64   55:58  32.2     8     53   34:49  4:51 
   61     1:49:56 Tara Rawluk             Stirling       5/23  W25 - 29      252    6     31   15:49  2:07    1     47   55:01  32.7     8    106   39:07  5:26 
   62     1:50:19 Gunther Klaschka        Kingston       1/6   M60 & Over    399    2    106   18:59  2:32    1     25   53:28  33.7     1     86   37:53  5:16 
   63     1:50:29 Joe Harding             Kingston       7/27  M30 - 34      425    13   137   19:59  2:40    17   112   59:10  30.4     4     10   31:21  4:22 
   64     1:51:04 Ted Branscombe          Kingston       7/11  M20 - 24      447    9    155   20:46  2:47    2     16   52:35  34.2     8     84   37:44  5:15 
   65     1:51:33 Steve Wright            Kingston       8/27  M30 - 34      292    4     33   15:56  2:08    9     70   56:11  32.0     16   113   39:26  5:29 
   66     1:51:37 Jennifer Brown          Gatineau       4/20  W30 - 34      278    3     13   14:00  1:52    6    165 1:02:48  28.7     3     54   34:50  4:51 
   67     1:51:45 Brett Kane              Kingston       8/11  M20 - 24      402    7     94   18:25  2:28    7     66   55:59  32.2     7     79   37:21  5:12 
   68     1:51:46 Timon Garreau           Ashton         9/27  M30 - 34      457    21   206   23:04  3:05    6     52   55:17  32.6     7     37   33:25  4:39 
   69     1:52:09 Kyra Pyke               Kingston       6/23  W25 - 29      293    10    74   17:36  2:21    7    101   58:28  30.8     6     68   36:06  5:01 
   70     1:52:34 Paula Jarvis            Oakville       2/19  W20 - 24      279    3     38   16:09  2:10    4    125   59:52  30.1     4     70   36:34  5:05 
   71     1:52:52 Simon REID              Port Hope     10/27  M30 - 34      377    7     80   17:46  2:23    11    82   57:07  31.5     12    88   38:01  5:17 
   72     1:53:02 Christine Lattimore     Kingston       1/14  W45 - 49      350    1     39   16:12  2:10    2    107   58:46  30.6     1     90   38:05  5:18 
   73     1:53:08 Peter Brown             Kingston       6/13  M50 - 54      301    9    109   19:06  2:33    5     41   54:42  32.9     7    107   39:21  5:28 
   74     1:53:17 James Mathers           Toronto        9/26  M45 - 49      304    11    93   18:23  2:28    15    93   57:43  31.2     10    76   37:12  5:10 
   75     1:53:21 Victoria Turner         Toronto        7/23  W25 - 29      318    9     71   17:22  2:19    10   137 1:00:47  29.6     4     60   35:13  4:54 
   76     1:53:21 Joan Tranmer            Kingston       1/3   W50 - 54      300    1     66   17:12  2:18    1     39   54:32  33.0     2    149   41:38  5:47 
   77     1:53:32 Holly Meyer             Brownsburg     5/18  W35 - 39      439    5     56   16:42  2:14    6    120   59:29  30.3     6     81   37:23  5:12 
   78     1:53:33 Andrew Smillie          Kingston      10/26  M45 - 49      385    13   101   18:47  2:31    11    72   56:15  32.0     14    96   38:32  5:22 
   79     1:53:37 Martha Collins          Kingston       2/17  W40 - 44      222    3     89   18:04  2:25    4     99   58:12  30.9     1     80   37:22  5:12 
   80     1:53:41 Peter Ellis             Kingston       7/17  M40 - 44      358    10   162   21:07  2:49    12   145 1:01:28  29.3     2      6   31:07  4:20 
   81     1:53:42 Claire Michel           Kingston       3/19  W20 - 24      388    2     36   16:05  2:09    2     57   55:38  32.4     13   158   42:00  5:50 
   82     1:53:43 Lindsay Nettlefold      Kingston       4/19  W20 - 24      268    11   132   19:45  2:38    3    115   59:12  30.4     3     51   34:47  4:50 
   83     1:53:46 Curtis Monnier          Harrowsmith   12/27  M35 - 39      383    5     40   16:12  2:10    12    75   56:19  32.0     16   142   41:17  5:44 
   84     1:54:04 Helga Grodzinski        Kingston       3/17  W40 - 44      226    4     90   18:07  2:25    3     88   57:24  31.4     4     98   38:33  5:22 
   85     1:54:32 Andres Pugi             East Greenbu   8/17  M40 - 44      333    8    113   19:14  2:34    8     54   55:20  32.5     11   121   39:59  5:34 
   86     1:54:49 Nicole Denelzen         Kingston       8/23  W25 - 29      291    12    97   18:40  2:30    3     60   55:53  32.2     12   130   40:17  5:36 
   87     1:55:03 Larry Aitken            Kingston      11/26  M45 - 49      464    15   115   19:16  2:35    7     34   54:10  33.2     16   148   41:38  5:47 
   88     1:55:24 David Ramsden           Kingston      12/26  M45 - 49      366    6     57   16:42  2:14    10    61   55:54  32.2     20   173   42:49  5:57 
   89     1:55:36 Mark Waldron            Kingston       9/17  M40 - 44      382    6     73   17:30  2:20    14   169 1:03:16  28.5     7     55   34:50  4:51 
   90     1:55:42 Cathy Banton            Kingston       5/19  W20 - 24      215    5     58   16:46  2:15    5    127 1:00:04  30.0     6    102   38:53  5:24 
   91     1:55:43 Daren Raoux             London        11/27  M30 - 34      269    20   201   22:59  3:04    14   100   58:14  30.9     9     47   34:32  4:48 
   92     1:55:49 Katie Compton           Mississauga    6/19  W20 - 24      435    8    105   18:58  2:32    11   158 1:02:22  28.9     2     46   34:29  4:48 
   93     1:55:49 Philip Rushworth        Ottawa        12/27  M30 - 34      337    12   127   19:38  2:37    12    87   57:24  31.4     13   100   38:48  5:24 
   94     1:55:54 Cuthbert Cheung         Belleville    13/26  M45 - 49      309    7     59   16:47  2:15    20   142 1:01:16  29.4     12    85   37:52  5:16 
   95     1:55:57 Ryan Travers            North Bay     13/27  M30 - 34      445    11   123   19:34  2:37    13    89   57:31  31.3     14   103   38:54  5:25 
   96     1:56:00 Bruce Fanjoy            Ottawa        10/17  M40 - 44      223    12   176   21:39  2:54    5     35   54:12  33.2     12   124   40:10  5:35 
   97     1:56:01 Judy Tse                Kingston       5/20  W30 - 34      394    8    128   19:39  2:38    7    173 1:03:30  28.4     1     30   32:53  4:35 
   98     1:56:12 Craig Meeks             Roslin        14/27  M30 - 34      369    15   168   21:19  2:51    5     43   54:46  32.9     17   123   40:08  5:35 
   99     1:56:33 Jim Keech               Bath          14/26  M45 - 49      260    12   100   18:45  2:30    19   130 1:00:13  29.9     11    83   37:36  5:14 
  100     1:57:01 Douglas Robertson       Calgary       11/17  M40 - 44      255    11   169   21:21  2:51    7     53   55:18  32.6     13   132   40:23  5:37 
  101     1:57:08 Zach Hunt               Kingston       2/3   Junior Men    209    1     32   15:54  2:08    1     44   54:48  32.9     3    220   46:27  6:27 
  102     1:57:11 Richard Cameron         Kingston       7/13  M50 - 54      257    8     95   18:27  2:28    10   133 1:00:19  29.9     6     93   38:26  5:21 
  103     1:57:18 Ian Sempowski           KIngston      13/27  M35 - 39      237    13   114   19:15  2:34    11    74   56:16  32.0     17   154   41:48  5:49 
  104     1:57:19 Andrew Ferguson         Sault Ste. M  15/27  M30 - 34      329    24   228   24:52  3:19    20   141 1:01:15  29.4     3      7   31:12  4:20 
  105     1:57:20 Kristian Ewen           Ottawa         4/11  M25 - 29      232    8    205   23:03  3:05    4     83   57:09  31.5     4     75   37:09  5:10 
  106     1:57:27 Brian Beck              Kingston      14/27  M35 - 39      214    20   182   21:53  2:55    14    92   57:35  31.3     12    87   38:00  5:17 
  107     1:57:28 Erika Sorensen          Kingston       9/23  W25 - 29      261    7     68   17:19  2:19    8    103   58:37  30.7     13   147   41:33  5:47 
  108     1:57:28 Robyn Saaltink          Kingston       7/19  W20 - 24      270    1     20   14:56  2:00    7    144 1:01:23  29.3     11   141   41:10  5:44 
  109     1:57:31 Janet Poulos            Kingston       4/17  W40 - 44      273    2     81   17:48  2:23    6    139 1:01:00  29.5     5     99   38:44  5:23 
  110     1:57:34 Dale Engen              Kingston      15/27  M35 - 39      420    25   229   24:58  3:20    17   118   59:27  30.3     6     32   33:11  4:37 
  111     1:57:43 Etienne Martineau       Ottawa         5/11  M25 - 29      473    7    175   21:37  2:53    2     62   55:55  32.2     6    126   40:13  5:36 
  112     1:57:44 Margaret Courtney       Maitland       6/18  W35 - 39      432    2     34   15:58  2:08    7    128 1:00:08  29.9     15   150   41:38  5:47 
  113     1:58:10 Alexandra Anderson      Orleans (Ott   1/2   Junior Women  362    2     79   17:42  2:22    1    131 1:00:18  29.9     1    125   40:12  5:35 
  114     1:58:13 Stephen Oikawa          Kingston      16/27  M35 - 39      345    17   161   21:05  2:49    16    97   58:11  30.9     14   104   38:58  5:25 
  115     1:58:37 Margaret Hamilton       Orleans (Ott   2/14  W45 - 49      361    3     99   18:44  2:30    3    129 1:00:11  29.9     2    116   39:43  5:31 
  116     1:58:43 Charles Walker          Harrowsmith   16/27  M30 - 34      327    17   191   22:12  2:58    19   121   59:37  30.2     11    72   36:55  5:08 
  117     1:58:51 Allan Merpaw            Elizabethtow   8/13  M50 - 54      213    4     46   16:26  2:12    8    104   58:39  30.7     8    191   43:46  6:05 
  118     1:59:02 Jay C. James            Napanee       17/27  M30 - 34      225    18   198   22:46  3:03    3     27   53:45  33.5     22   166   42:31  5:55 
  119     1:59:05 Andre Dostaler          Kingston      15/26  M45 - 49      450    24   240   25:56  3:28    8     40   54:38  33.0     13    95   38:32  5:22 
  120     1:59:07 Ross McShane            Nepean        12/17  M40 - 44      364    14   227   24:50  3:19    9     78   56:51  31.7     9     82   37:28  5:13 
  121     1:59:19 Brian McDonald          Kingston      16/26  M45 - 49      243    2     42   16:18  2:11    17   109   58:50  30.6     23   196   44:12  6:09 
  122     1:59:25 Angela Brown            Toronto       10/23  W25 - 29      289    3      7   13:42  1:50    16   203 1:05:58  27.3     10   117   39:46  5:32 
  123     1:59:46 Derek Ouellet           Kingston      13/17  M40 - 44      250    7     98   18:43  2:30    11    85   57:15  31.5     14   192   43:49  6:06 
  124     1:59:49 Rick Hunt               Kingston      17/26  M45 - 49      211    23   218   23:57  3:12    12    73   56:15  32.0     15   114   39:37  5:31 
  125     1:59:50 Graeme Nimmo            Stouffville    9/11  M20 - 24      411    8    150   20:26  2:44    9    123   59:44  30.1     9    115   39:40  5:31 
  126     2:00:08 Shannon Johns           Kingston       8/19  W20 - 24      202    10   111   19:11  2:34    8    148 1:01:34  29.2     7    110   39:24  5:29 
  127     2:00:31 Ken Macdonald           Toronto       17/27  M35 - 39      452    14   118   19:23  2:36    20   155 1:02:21  28.9     13   101   38:48  5:24 
  128     2:00:38 Kathy Mackenzie         Kingston       9/19  W20 - 24      359    6     83   17:49  2:23    14   184 1:04:17  28.0     5     97   38:33  5:22 
  129     2:00:42 Jim Tait                Toronto       18/26  M45 - 49      212    18   172   21:31  2:53    25   186 1:04:54  27.7     8     44   34:18  4:46 
  130     2:00:52 Shelley Mulrooney       Kingston       7/18  W35 - 39      467    11   136   19:58  2:40    8    132 1:00:18  29.9     9    135   40:37  5:39 
  131     2:00:57 Bev Whiten              Kingston       8/18  W35 - 39      347    10   129   19:41  2:38    9    138 1:00:51  29.6     8    133   40:26  5:37 
  132     2:01:00 Geoff Parker            Ottawa         6/11  M25 - 29      233    5    147   20:20  2:43    9    134 1:00:23  29.8     7    131   40:18  5:36 
  133     2:01:03 Nathalie Cote           Toronto        6/20  W30 - 34      324    9    131   19:43  2:38    4     86   57:17  31.4     12   195   44:05  6:08 
  134     2:01:10 Tony Barton             Kingston      18/27  M35 - 39      384    19   170   21:29  2:52    13    91   57:35  31.3     18   160   42:07  5:51 
  135     2:01:21 Nathalie Charette       Kirkland       9/18  W35 - 39      207    13   148   20:22  2:43    11   180 1:04:04  28.1     4     73   36:56  5:08 
  136     2:01:45 Rob Renaud              Yarker        19/26  M45 - 49      208    9     76   17:38  2:22    18   116   59:24  30.3     24   203   44:43  6:13 
  137     2:01:46 Jamie Hinchey           Kingston       7/11  M25 - 29      311    9    209   23:12  3:06    6    114   59:11  30.4     5    112   39:25  5:29 
  138     2:01:52 Kira McNeely            Kingston      10/18  W35 - 39      253    18   230   25:01  3:21    5    110   58:50  30.6     7     89   38:02  5:17 
  139     2:01:54 Lynda Steers            Toronto        5/17  W40 - 44      298    9    142   20:06  2:41    2     79   56:57  31.6     11   204   44:52  6:14 
  140     2:02:03 Alyson Wendorf          Kingston      10/19  W20 - 24      400    4     41   16:16  2:11    12   163 1:02:32  28.8     14   181   43:15  6:01 
  141     2:02:22 Dave Robertson          Kingston      19/27  M35 - 39      307    7     53   16:38  2:14    22   168 1:03:10  28.5     20   167   42:34  5:55 
  142     2:02:25 Shawn LaPlante          Bath          18/27  M30 - 34      465    22   208   23:06  3:05    16   111   59:07  30.5     18   127   40:13  5:36 
  143     2:02:32 Christopher Heays       Waterloo       8/11  M25 - 29      418    6    152   20:38  2:46    8    124   59:51  30.1     9    159   42:04  5:51 
  144     2:02:33 Shriram Venkataramana   Kingston       3/3   Junior Men    387    3    133   19:49  2:39    3    162 1:02:29  28.8     2    128   40:16  5:36 
  145     2:02:49 Michael Brundage        Kingston      20/26  M45 - 49      341    22   212   23:20  3:07    14    90   57:33  31.3     17   156   41:57  5:50 
  146     2:02:57 Gina Gushue             Kingston       3/14  W45 - 49      321    6    158   20:53  2:47    1    106   58:42  30.7     7    186   43:23  6:02 
  147     2:03:06 Cindy Cowin             RR3 Bath       4/14  W45 - 49      227    5    154   20:42  2:46    4    152 1:02:09  29.0     3    129   40:16  5:36 
  148     2:03:25 Mike Lucas              Sydenham      20/27  M35 - 39      224    15   119   19:25  2:36    19   147 1:01:30  29.3     19   165   42:30  5:55 
  149     2:03:35 Julien Leboucher        Kingston      10/11  M20 - 24      410    10   163   21:09  2:50    10   160 1:02:22  28.9     10   122   40:04  5:34 
  150     2:03:39 Kerry Phillips          Belleville    21/26  M45 - 49      238    20   180   21:44  2:54    16   105   58:40  30.7     21   182   43:16  6:01 
  151     2:03:54 Emily Spencer           Kingston      11/23  W25 - 29      426    8     69   17:21  2:19    18   211 1:06:38  27.0     11   120   39:56  5:33 
  152     2:03:56 Paul Tourigny           Kingston      19/27  M30 - 34      296    14   140   20:04  2:41    15   102   58:32  30.8     25   208   45:20  6:18 
  153     2:03:57 Diane Urie              Kingston      11/18  W35 - 39      285    8     75   17:36  2:21    13   188 1:04:59  27.7     13   144   41:23  5:45 
  154     2:03:58 Greg Kerr               Tweed          9/13  M50 - 54      206    12   195   22:33  3:01    7     84   57:12  31.5     9    197   44:14  6:09 
  155     2:04:08 Mark Shewfelt           Ottawa        20/27  M30 - 34      338    23   215   23:32  3:09    18   113   59:10  30.4     20   145   41:27  5:46 
  156     2:04:18 Jill Scott              Kingston      12/18  W35 - 39      367    14   167   21:17  2:51    10   154 1:02:19  28.9     10   136   40:43  5:40 
  157     2:04:19 Laura McGugan           Belleville    12/23  W25 - 29      314    17   186   22:07  2:57    13   177 1:03:43  28.3     7     94   38:29  5:21 
  158     2:04:32 Cathy Windsor           Kingston       6/17  W40 - 44      434    12   184   21:59  2:56    9    185 1:04:27  27.9     2     91   38:06  5:18 
  159     2:04:34 Irvine Francis          Cornwall       2/3   M55 - 59      325    1    116   19:20  2:35    2    122   59:37  30.2     3    213   45:38  6:21 
  160     2:05:11 Bob Harding             Sydenham      10/13  M50 - 54      264    10   134   19:52  2:39    9    126   59:55  30.1     10   209   45:25  6:19 
  161     2:05:12 Heather Lowe            Toronto        7/20  W30 - 34      374    5     55   16:41  2:14    11   200 1:05:46  27.4     10   172   42:46  5:57 
  162     2:05:26 Jennifer Birkas         Gananoque      8/20  W30 - 34      262    11   157   20:49  2:47    5    150 1:01:55  29.1     9    169   42:43  5:56 
  163     2:05:31 Daryl Keays             Burlington    21/27  M30 - 34      428    16   188   22:10  2:58    21   161 1:02:25  28.8     19   139   40:57  5:42 
  164     2:05:37 Miriam Lyon             Ottawa        11/19  W20 - 24      355    12   143   20:06  2:41    16   199 1:05:43  27.4     8    119   39:49  5:32 
  165     2:05:43 Genevieve Dostaler      Kingston       2/2   Junior Women  474    1     77   17:40  2:22    2    197 1:05:42  27.4     2    163   42:22  5:53 
  166     2:05:43 Kathy Pouteau           Kingston       9/20  W30 - 34      265    10   149   20:25  2:44    10   196 1:05:32  27.5     6    118   39:47  5:32 
  167     2:05:47 Cindy Healy             Kingston       7/17  W40 - 44      249    15   221   24:21  3:15    5    119   59:28  30.3     7    157   41:58  5:50 
  168     2:05:56 Scott Spencer           Seeleys Bay   22/26  M45 - 49      357    19   179   21:42  2:54    21   149 1:01:46  29.1     18   164   42:29  5:54 
  169     2:06:05 Marieke Head            Kingston      12/19  W20 - 24      356    13   145   20:14  2:42    13   182 1:04:13  28.0     12   151   41:39  5:47 
  170     2:06:38 Leigh Bowman            Orillia        5/14  W45 - 49      381    2     92   18:10  2:26    5    194 1:05:28  27.5     6    178   43:01  5:59 
  171     2:06:44 Donald Farquhar         Kingston      23/26  M45 - 49      290    21   185   22:04  2:57    22   151 1:01:58  29.1     19   170   42:44  5:56 
  172     2:06:47 Robert Hess             Niskayuna     14/17  M40 - 44      315    13   216   23:43  3:10    16   175 1:03:40  28.3     10   111   39:25  5:29 
  173     2:06:53 Anthony Cameron         Kingston      22/27  M30 - 34      442    9     91   18:09  2:26    25   183 1:04:16  28.0     24   201   44:28  6:11 
  174     2:06:58 Maria Cronk             Kingston       8/17  W40 - 44      351    7    125   19:37  2:37    8    167 1:03:04  28.5     10   199   44:18  6:10 
  175     2:06:59 Karen Robertson         Ottawa        13/18  W35 - 39      241    7     67   17:14  2:18    15   213 1:07:01  26.9     17   171   42:45  5:57 
  176     2:07:02 Pierre C Tessier        Ottawa        24/26  M45 - 49      427    16   139   20:01  2:41    24   170 1:03:19  28.4     22   190   43:43  6:05 
  177     2:07:20 Joanna Welburn          Lachute       13/23  W25 - 29      454    11    88   18:04  2:25    17   207 1:06:16  27.2     15   179   43:02  5:59 
  178     2:07:31 Madeleine Corriveau     Pembroke      13/19  W20 - 24      221    16   174   21:35  2:53    10   157 1:02:22  28.9     16   189   43:35  6:04 
  179     2:07:57 Lynne Rousseau          Yarker         9/17  W40 - 44      248    6    117   19:22  2:35    11   192 1:05:20  27.6     9    183   43:16  6:01 
  180     2:08:00 Skye Edwards            Kingston      14/19  W20 - 24      354    7     84   17:54  2:24    6    143 1:01:19  29.4     17   229   48:48  6:47 
  181     2:08:22 Martha Phillips         Belleville    10/17  W40 - 44      239    10   160   21:00  2:48    10   189 1:05:15  27.6     8    161   42:08  5:52 
  182     2:08:38 Geoffrey Flynn          Bath           2/6   M60 & Over    343    1    102   18:50  2:31    2    135 1:00:25  29.8     4    234   49:24  6:52 
  183     2:08:48 Michelle Gouchie        Ottawa        10/20  W30 - 34      398    13   177   21:40  2:54    8    174 1:03:40  28.3     11   187   43:30  6:03 
  184     2:08:52 Stacy Jowett            Seeleys bay   14/23  W25 - 29      396    15   146   20:16  2:43    15   198 1:05:43  27.4     14   175   42:54  5:58 
  185     2:09:00 Sylvia Smellie          Toronto       15/23  W25 - 29      323    18   189   22:11  2:58    12   171 1:03:27  28.4     16   185   43:22  6:02 
  186     2:09:15 Siobhan Kelly           Kingston      14/18  W35 - 39      288    12   141   20:04  2:41    12   187 1:04:57  27.7     18   198   44:15  6:09 
  187     2:09:26 Heather Brackley        Kingston      15/19  W20 - 24      328    14   159   20:55  2:48    15   190 1:05:15  27.6     15   184   43:17  6:01 
  188     2:09:41 Carolne Sangers         Glenburnie    15/18  W35 - 39      453    16   200   22:57  3:04    14   202 1:05:49  27.4     11   138   40:56  5:41 
  189     2:09:57 Heather Hicks           Toronto       16/19  W20 - 24      305    17   204   23:02  3:05    17   206 1:06:08  27.2     9    137   40:48  5:40 
  190     2:10:06 Karilene Montgomery     Kingston      11/17  W40 - 44      251    5     96   18:28  2:28    7    140 1:01:05  29.5     14   238   50:33  7:02 
  191     2:10:15 Tim Burton              Edmonton       9/11  M25 - 29      280    10   237   25:25  3:24    5    108   58:46  30.6     10   216   46:05  6:24 
  192     2:10:36 Karen Jutzi             Toronto       16/23  W25 - 29      259    21   222   24:31  3:17    9    136 1:00:41  29.7     18   210   45:25  6:19 
  193     2:10:47 Mitch Stein             Kingston      21/27  M35 - 39      281    24   220   24:17  3:15    18   146 1:01:30  29.3     23   205   45:01  6:16 
  194     2:10:47 Kathryn Handford        Toronto       12/17  W40 - 44      440    13   190   22:11  2:58    12   212 1:06:58  26.9     6    152   41:39  5:48 
  195     2:11:15 Rick Benn               Mississauga   23/27  M30 - 34      294    19   199   22:51  3:03    24   181 1:04:08  28.1     23   200   44:18  6:10 
  196     2:11:23 Catherine Lachance      Montreal      17/23  W25 - 29      408    14   130   19:43  2:38    11   164 1:02:39  28.7     21   232   49:03  6:49 
  197     2:11:31 Hilary Smith            Kingston      16/18  W35 - 39      271    9    124   19:35  2:37    17   231 1:10:26  25.6     14   146   41:31  5:46 
  198     2:12:00 Wendy Pentland          Kingston       6/14  W45 - 49      336    7    181   21:51  2:55    7    214 1:07:21  26.7     4    174   42:50  5:57 
  199     2:12:13 Mike Porter             Kingston      22/27  M35 - 39      378    22   217   23:43  3:10    21   166 1:03:00  28.6     24   212   45:30  6:20 
  200     2:12:18 Gillian Kelly           Kingston       1/2   W55 - 59      275    1    203   23:00  3:04    1    201 1:05:47  27.4     1    188   43:31  6:03 
  201     2:12:36 Wayne Gollogly          Gananoque      3/6   M60 & Over    334    3    196   22:43  3:02    3    205 1:06:04  27.3     2    193   43:50  6:06 
  202     2:12:54 Christine Demore        Ottawa        18/23  W25 - 29      413    19   193   22:17  2:59    14   195 1:05:31  27.5     17   207   45:08  6:17 
  203     2:13:16 Roger Bowes             Kingston      23/27  M35 - 39      459    21   214   23:26  3:08    23   210 1:06:36  27.0     21   180   43:15  6:01 
  204     2:13:17 Marc Baron              Toronto       10/11  M25 - 29      404    4    120   19:27  2:36    10   179 1:03:54  28.2     11   237   49:57  6:57 
  205     2:13:24 Eric Schjerning         Etobicoke     15/17  M40 - 44      401    15   232   25:11  3:22    13   156 1:02:22  28.9     16   215   45:52  6:23 
  206     2:13:28 Natalie Bursztyn        Kingston      17/19  W20 - 24      204    15   173   21:33  2:53    9    153 1:02:16  28.9     18   236   49:40  6:54 
  207     2:13:35 Peter Wong              Scarborough   24/27  M30 - 34      245    27   256   30:49  4:07    22   176 1:03:42  28.3     15   105   39:06  5:26 
  208     2:13:50 Bruce Patry             Kingston      25/27  M30 - 34      230    10   112   19:14  2:34    23   178 1:03:45  28.2     27   240   50:52  7:04 
  209     2:14:03 Annette Robertson       Calgary       17/18  W35 - 39      256    17   224   24:33  3:17    16   220 1:08:11  26.4     12   143   41:19  5:45 
  210     2:14:09 Mark Grimwood           Rockwood      11/11  M20 - 24      456    11   211   23:16  3:07    11   219 1:07:54  26.5     11   177   42:59  5:59 
  211     2:14:09 Brenda Saaltink         Cornwall       7/14  W45 - 49      368    4    138   20:00  2:40    6    208 1:06:24  27.1     10   224   47:46  6:38 
  212     2:14:09 Josey Steel             Inverary      18/18  W35 - 39      274    15   171   21:30  2:52    18   232 1:10:26  25.6     16   162   42:14  5:52 
  213     2:14:17 Shirley Myers           Kingston       2/3   W50 - 54      228    3    261   32:54  4:24    2    193 1:05:24  27.5     1     66   35:59  5:00 
  214     2:14:43 Sanaz Ghoreshy          Kingston      11/20  W30 - 34      412    7    126   19:37  2:37    14   221 1:08:46  26.2     13   219   46:21  6:27 
  215     2:15:00 Katia Sorin             Kingston      12/20  W30 - 34      395    19   247   27:57  3:44    12   209 1:06:29  27.1     7    134   40:35  5:39 
  216     2:15:12 Julie Belbeck           Petawawa      19/23  W25 - 29      342    16   153   20:40  2:46    21   247 1:15:10  24.0     9    108   39:23  5:29 
  217     2:15:51 Todd Hataley            Kingston      16/17  M40 - 44      295    17   242   26:56  3:36    15   172 1:03:29  28.4     15   211   45:27  6:19 
  218     2:16:48 Corrina Wilson          Kingston      20/23  W25 - 29      266    13   122   19:29  2:36    19   225 1:09:27  25.9     19   225   47:53  6:40 
  219     2:16:54 Chris Leitch            Whitby        26/27  M30 - 34      386    25   244   27:36  3:41    26   215 1:07:33  26.7     21   153   41:47  5:49 
  220     2:16:59 Nadine Simard           Ottawa        13/20  W30 - 34      472    14   194   22:27  3:00    9    191 1:05:18  27.6     16   233   49:15  6:51 
  221     2:18:09 Sonya Benn              Mississauga   14/20  W30 - 34      286    6    121   19:27  2:36    17   228 1:09:49  25.8     15   231   48:54  6:48 
  222     2:18:40 William Donlon          Dearborn      11/13  M50 - 54      254    11   165   21:13  2:50    11   204 1:06:03  27.3     11   241   51:25  7:09 
  223     2:18:40 Maureen Stocker         Toronto       13/17  W40 - 44      471    17   233   25:16  3:23    13   217 1:07:36  26.6     12   214   45:48  6:22 
  224     2:18:57 Elizabeth Brooks        Stirling      14/17  W40 - 44      397    14   192   22:15  2:58    15   229 1:09:50  25.8     13   222   46:54  6:31 
  225     2:19:42 Ted Belbeck             Ingersoll      3/3   M55 - 59      344    3    226   24:46  3:19    3    233 1:10:28  25.6     2    202   44:29  6:11 
  226     2:20:21 Sharleen Denney         Kingston      15/20  W30 - 34      433    20   251   28:27  3:48    15   224 1:09:15  26.0     8    168   42:40  5:56 
  227     2:20:29 Dan Huot                Nepean        25/26  M45 - 49      446    26   253   29:19  3:55    23   159 1:02:22  28.9     25   230   48:49  6:47 
  228     2:20:29 Stuart Jones            Carp          24/27  M35 - 39      448    26   245   27:38  3:42    24   222 1:08:47  26.2     22   194   44:04  6:08 
  229     2:22:06 Chris Ellenor           Toronto       11/11  M25 - 29      229    11   257   31:02  4:09    11   223 1:09:14  26.0     8    155   41:51  5:49 
  230     2:22:12 Lynn Bennett            Kingston       8/14  W45 - 49      389    9    210   23:14  3:06    8    235 1:11:17  25.3     9    223   47:42  6:38 
  231     2:22:15 Donna OConnor           Kingston       3/3   W50 - 54      299    2    187   22:09  2:58    3    241 1:13:47  24.4     3    218   46:20  6:27 
  232     2:23:01 Justine Amaro           Kingston      16/20  W30 - 34      267    17   236   25:22  3:23    16   226 1:09:45  25.8     14   226   47:55  6:40 
  233     2:24:04 Dave G. Stewart         Kingston      12/13  M50 - 54      277    13   223   24:32  3:17    12   218 1:07:37  26.6     12   243   51:56  7:13 
  234     2:24:11 Christine Quenneville   Kingston      17/20  W30 - 34      310    18   241   25:59  3:28    13   216 1:07:35  26.6     17   239   50:38  7:02 
  235     2:24:19 Dawn Calnek             Kingston       9/14  W45 - 49      466    10   225   24:42  3:18    12   250 1:16:40  23.5     5    176   42:57  5:58 
  236     2:25:11 Bonnie Mundy            Kingston      15/17  W40 - 44      339    8    135   19:58  2:40    16   239 1:12:39  24.8     16   244   52:35  7:19 
  237     2:26:21 Heather Reibin          Kingston      18/19  W20 - 24      455    19   249   28:17  3:47    19   252 1:16:57  23.4     10   140   41:08  5:43 
  238     2:26:25 Scott Turner            Toronto       27/27  M30 - 34      322    26   246   27:41  3:42    27   237 1:12:32  24.8     26   217   46:13  6:26 
  239     2:27:34 Katherine Venance       Ottawa        16/17  W40 - 44      460    11   183   21:59  2:56    14   227 1:09:47  25.8     17   251   55:49  7:46 
  240     2:29:25 Martine Head            Ancaster      10/14  W45 - 49      352    8    202   22:59  3:04    14   258 1:19:40  22.6     8    221   46:47  6:30 
  241     2:30:17 Michelle Menard         Kingston      18/20  W30 - 34      316    15   207   23:05  3:05    19   243 1:14:20  24.2     18   245   52:53  7:21 
  242     2:31:19 Sarah Twomey            Vancouver     17/17  W40 - 44      451    16   231   25:10  3:22    17   246 1:14:36  24.1     15   242   51:35  7:10 
  243     2:31:24 Katherine Burgess       Rockwood      21/23  W25 - 29      258    22   235   25:20  3:23    23   255 1:17:51  23.1     20   228   48:14  6:42 
  244     2:32:07 Catherine Shaw          Kingston      19/19  W20 - 24      303    18   213   23:23  3:08    18   244 1:14:22  24.2     19   249   54:23  7:34 
  245     2:32:10 Brian Hinton            Toronto       25/27  M35 - 39      380    18   166   21:15  2:50    26   253 1:17:02  23.4     26   247   53:55  7:30 
  246     2:33:26 Daniela ARCIERO         Kingston      19/20  W30 - 34      475    16   234   25:18  3:23    18   234 1:11:01  25.4     19   255   57:08  7:56 
  247     2:36:14 Antonio Lee             Brampton      26/27  M35 - 39      422    27   264   38:19  5:07    25   230 1:09:58  25.7     25   227   47:58  6:40 
  248     2:37:45 Linda Bethune           Kingston      11/14  W45 - 49      217    11   238   25:31  3:25    10   248 1:15:31  23.8     14   254   56:44  7:53 
  249     2:38:24 Terry Burns             Kingston      12/14  W45 - 49      287    12   250   28:22  3:47    11   249 1:16:20  23.6     11   246   53:43  7:28 
  250     2:38:38 Elizabeth Eickmeier     Howe Island    1/2   W60 & Over    234    2    252   28:39  3:50    1    242 1:13:51  24.4     1    252   56:09  7:48 
  251     2:39:22 Heather Jenkins         Kingston      22/23  W25 - 29      332    23   259   32:23  4:20    22   254 1:17:36  23.2     22   235   49:24  6:52 
  252     2:39:30 Peter Waldron           Kingston      27/27  M35 - 39      417    23   219   24:03  3:13    27   256 1:18:12  23.0     27   256   57:16  7:58 
  253     2:39:38 Peter Vangestel         Erinsville     4/6   M60 & Over    437    5    260   32:53  4:24    6    259 1:21:43  22.0     3    206   45:03  6:16 
  254     2:39:39 Jennifer Bechtel        Kitchener     23/23  W25 - 29      419    20   197   22:44  3:02    20   240 1:13:29  24.5     23   260 1:03:27  8:49 
  255     2:40:25 Peter Slaughter         Kingston      26/26  M45 - 49      276    25   243   27:33  3:41    26   245 1:14:27  24.2     26   258   58:25  8:07 
  256     2:40:53 Judy Crute              Scarborough   13/14  W45 - 49      429    14   258   31:54  4:16    9    238 1:12:37  24.8     13   253   56:23  7:50 
  257     2:44:17 Laurie Lockerbie        Kingston      14/14  W45 - 49      348    13   254   29:23  3:56    13   257 1:19:38  22.6     12   250   55:17  7:41 
  258     2:46:50 Doug Knowles            Kingston       5/6   M60 & Over    376    6    263   35:41  4:46    5    251 1:16:56  23.4     5    248   54:14  7:32 
  259     2:47:46 Brian Jewitt            Cantley        6/6   M60 & Over    423    4    255   30:00  4:00    4    236 1:11:51  25.1     6    262 1:05:56  9:10 
  260     2:48:19 Kathleen Williamson     Hamilton      20/20  W30 - 34      317    12   164   21:10  2:50    20   261 1:23:02  21.7     20   261 1:04:08  8:55 
  261     2:53:26 Elaine Bursztyn         Barrie         2/2   W55 - 59      216    2    262   33:35  4:29    2    260 1:22:27  21.8     2    257   57:25  7:59 
  262     3:06:03 Beverley Tucker         Collingwood    2/2   W60 & Over    470    1    248   28:16  3:47    2    262 1:25:36  21.0     2    263 1:12:12 10:02 
  263     3:08:22 Mark Mosier             Belleville    17/17  M40 - 44      201    16   239   25:35  3:25    17   263 1:43:11  17.4     17   259   59:37  8:17 
  264             Philip Blackford        Toronto       13/13  M50 - 54      407    5     61   16:51  2:15